createdAt,value
2018-06-12T00:01:54.015Z,80.30
2018-06-12T00:04:22.846Z,79.90
2018-06-12T00:06:51.032Z,79.90
2018-06-12T00:09:19.232Z,79.90
2018-06-12T00:11:47.434Z,79.00
2018-06-12T00:14:15.683Z,79.50
2018-06-12T00:16:43.842Z,79.90
2018-06-12T00:19:12.050Z,79.90
2018-06-12T00:21:40.244Z,79.40
2018-06-12T00:24:08.426Z,79.60
2018-06-12T00:26:37.146Z,79.50
2018-06-12T00:29:05.986Z,80.30
2018-06-12T00:31:34.178Z,80.40
2018-06-12T00:34:02.382Z,80.00
2018-06-12T00:36:30.548Z,79.60
2018-06-12T00:38:58.713Z,79.60
2018-06-12T00:41:26.894Z,79.50
2018-06-12T00:43:55.059Z,79.70
2018-06-12T00:46:23.227Z,79.50
2018-06-12T00:48:51.470Z,79.60
2018-06-12T00:51:19.659Z,78.70
2018-06-12T00:53:47.887Z,79.30
2018-06-12T00:56:27.304Z,79.20
2018-06-12T00:58:55.462Z,78.20
2018-06-12T01:01:24.657Z,78.30
2018-06-12T01:03:53.167Z,78.70
2018-06-12T01:06:22.603Z,77.90
2018-06-12T01:08:50.813Z,78.30
2018-06-12T01:11:19.970Z,79.00
2018-06-12T01:13:48.130Z,78.90
2018-06-12T01:16:16.310Z,79.60
2018-06-12T01:18:44.466Z,79.70
2018-06-12T01:21:12.621Z,80.40
2018-06-12T01:23:40.841Z,80.60
2018-06-12T01:26:08.986Z,80.00
2018-06-12T01:28:37.135Z,80.50
2018-06-12T01:31:05.801Z,79.20
2018-06-12T01:33:33.946Z,78.60
2018-06-12T01:36:02.098Z,79.10
2018-06-12T01:38:30.258Z,78.20
2018-06-12T01:40:58.413Z,79.00
2018-06-12T01:43:26.599Z,79.30
2018-06-12T01:45:54.790Z,79.10
2018-06-12T01:48:22.934Z,78.60
2018-06-12T01:50:51.082Z,79.50
2018-06-12T01:53:19.238Z,79.20
2018-06-12T01:55:47.431Z,79.10
2018-06-12T01:58:15.590Z,78.10
2018-06-12T02:00:43.796Z,78.10
2018-06-12T02:03:12.049Z,78.10
2018-06-12T02:05:40.234Z,78.60
2018-06-12T02:08:09.714Z,78.40
2018-06-12T02:13:44.891Z,78.70
2018-06-12T02:16:13.109Z,78.90
2018-06-12T02:18:41.260Z,78.70
2018-06-12T02:21:09.451Z,79.20
2018-06-12T02:23:37.608Z,78.60
2018-06-12T02:26:05.751Z,78.50
2018-06-12T02:28:33.988Z,78.70
2018-06-12T02:31:02.135Z,78.50
2018-06-12T02:33:30.301Z,78.20
2018-06-12T02:35:58.480Z,78.80
2018-06-12T02:38:26.651Z,78.00
2018-06-12T02:40:54.805Z,78.30
2018-06-12T02:43:22.981Z,78.60
2018-06-12T02:45:51.145Z,77.90
2018-06-12T02:48:19.317Z,78.40
2018-06-12T02:50:48.055Z,78.40
2018-06-12T02:53:16.222Z,78.30
2018-06-12T02:55:44.411Z,78.90
2018-06-12T02:58:12.606Z,79.00
2018-06-12T03:00:40.754Z,79.00
2018-06-12T03:03:08.906Z,79.60
2018-06-12T03:05:37.115Z,79.60
2018-06-12T03:08:05.326Z,79.70
2018-06-12T03:10:34.355Z,79.30
2018-06-12T03:13:02.546Z,79.50
2018-06-12T03:15:30.854Z,79.60
2018-06-12T03:17:59.006Z,79.80
2018-06-12T03:20:46.842Z,79.30
2018-06-12T03:23:14.998Z,79.20
2018-06-12T03:25:43.153Z,79.90
2018-06-12T03:28:12.134Z,80.00
2018-06-12T03:30:40.296Z,81.00
2018-06-12T03:33:08.430Z,81.30
2018-06-12T03:35:36.605Z,82.50
2018-06-12T03:38:04.768Z,82.90
2018-06-12T03:40:32.926Z,84.10
2018-06-12T03:43:01.163Z,84.40
2018-06-12T03:45:29.477Z,85.60
2018-06-12T03:47:57.651Z,85.90
2018-06-12T03:50:25.855Z,86.80
2018-06-12T03:52:54.118Z,86.60
2018-06-12T03:55:22.306Z,87.50
2018-06-12T03:57:50.493Z,88.10
2018-06-12T04:00:18.662Z,88.70
2018-06-12T04:02:46.821Z,88.30
2018-06-12T04:05:15.019Z,88.80
2018-06-12T04:07:43.231Z,89.40
2018-06-12T04:10:11.362Z,89.30
2018-06-12T04:12:41.102Z,88.80
2018-06-12T04:15:09.261Z,89.00
2018-06-12T04:17:37.407Z,89.60
2018-06-12T04:20:05.583Z,88.70
2018-06-12T04:22:33.746Z,90.00
2018-06-12T04:25:01.914Z,89.50
2018-06-12T04:27:30.099Z,89.70
2018-06-12T04:29:58.262Z,90.00
2018-06-12T04:32:26.450Z,90.00
2018-06-12T04:34:54.961Z,89.40
2018-06-12T04:37:23.186Z,90.00
2018-06-12T04:39:51.334Z,89.20
2018-06-12T04:42:19.526Z,89.20
2018-06-12T04:44:47.930Z,89.40
2018-06-12T04:47:16.086Z,89.50
2018-06-12T04:49:44.422Z,89.70
2018-06-12T04:52:12.616Z,89.10
2018-06-12T04:54:40.821Z,89.20
2018-06-12T04:57:09.017Z,89.70
2018-06-12T04:59:37.223Z,89.60
2018-06-12T05:02:05.427Z,90.00
2018-06-12T05:04:33.602Z,89.40
2018-06-12T05:07:01.772Z,89.70
2018-06-12T05:09:29.949Z,90.20
2018-06-12T05:11:58.121Z,90.30
2018-06-12T05:14:26.428Z,90.70
2018-06-12T05:16:54.603Z,91.00
2018-06-12T05:19:23.510Z,91.30
2018-06-12T05:21:51.669Z,91.70
2018-06-12T05:24:19.826Z,91.80
2018-06-12T05:26:48.007Z,91.90
2018-06-12T05:29:16.179Z,91.90
2018-06-12T05:31:44.362Z,92.00
2018-06-12T05:34:12.646Z,91.70
2018-06-12T05:36:40.810Z,91.70
2018-06-12T05:39:10.102Z,91.70
2018-06-12T05:41:39.087Z,91.90
2018-06-12T05:44:07.250Z,92.00
2018-06-12T05:46:35.446Z,91.80
2018-06-12T05:49:03.659Z,91.20
2018-06-12T05:51:31.814Z,91.00
2018-06-12T05:54:00.008Z,91.00
2018-06-12T05:56:28.176Z,90.70
2018-06-12T05:58:56.338Z,91.00
2018-06-12T06:01:24.815Z,90.60
2018-06-12T06:03:52.973Z,90.80
2018-06-12T06:06:21.138Z,91.00
2018-06-12T06:08:49.339Z,90.20
2018-06-12T06:11:17.505Z,90.30
2018-06-12T06:13:45.671Z,90.50
2018-06-12T06:16:24.916Z,90.70
2018-06-12T06:18:53.077Z,91.30
2018-06-12T06:21:21.242Z,91.10
2018-06-12T06:26:23.191Z,90.80
2018-06-12T06:28:51.346Z,90.50
2018-06-12T06:31:19.522Z,90.40
2018-06-12T06:33:48.558Z,90.10
2018-06-12T06:36:16.719Z,90.20
2018-06-12T06:38:44.887Z,90.10
2018-06-12T06:41:13.054Z,90.00
2018-06-12T06:43:41.200Z,89.80
2018-06-12T06:46:09.354Z,89.90
2018-06-12T06:48:38.071Z,90.10
2018-06-12T06:51:06.319Z,90.40
2018-06-12T06:53:34.507Z,90.70
2018-06-12T06:56:02.651Z,90.80
2018-06-12T06:58:30.824Z,90.60
2018-06-12T07:00:58.988Z,90.70
2018-06-12T07:03:27.160Z,90.60
2018-06-12T07:05:55.306Z,90.60
2018-06-12T07:08:23.455Z,90.50
2018-06-12T07:10:52.153Z,90.70
2018-06-12T07:13:20.305Z,90.40
2018-06-12T07:15:48.471Z,90.40
2018-06-12T07:18:17.237Z,90.40
2018-06-12T07:21:22.583Z,90.90
2018-06-12T07:23:50.791Z,91.00
2018-06-12T07:26:19.018Z,90.70
2018-06-12T07:28:47.182Z,90.40
2018-06-12T07:31:15.374Z,90.50
2018-06-12T07:33:43.520Z,90.30
2018-06-12T07:36:11.827Z,90.80
2018-06-12T07:38:40.026Z,90.60
2018-06-12T07:41:08.210Z,90.80
2018-06-12T07:43:36.453Z,90.30
2018-06-12T07:46:04.814Z,90.30
2018-06-12T07:48:32.988Z,90.20
2018-06-12T07:51:01.160Z,90.40
2018-06-12T07:53:29.905Z,90.50
2018-06-12T07:55:58.053Z,90.40
2018-06-12T07:58:26.212Z,89.80
2018-06-12T08:00:54.400Z,89.60
2018-06-12T08:03:22.550Z,88.20
2018-06-12T08:05:50.723Z,88.80
2018-06-12T08:08:18.897Z,88.00
2018-06-12T08:10:47.073Z,88.10
2018-06-12T08:13:15.253Z,89.10
2018-06-12T08:15:43.746Z,88.50
2018-06-12T08:18:11.919Z,88.40
2018-06-12T08:20:40.214Z,87.30
2018-06-12T08:23:08.398Z,87.70
2018-06-12T08:25:36.570Z,87.80
2018-06-12T08:28:04.720Z,87.30
2018-06-12T08:30:32.997Z,87.40
2018-06-12T08:33:01.102Z,87.20
2018-06-12T08:35:29.366Z,86.90
2018-06-12T08:37:57.963Z,87.90
2018-06-12T08:40:26.131Z,86.80
2018-06-12T08:42:54.282Z,87.20
2018-06-12T08:45:22.477Z,87.10
2018-06-12T08:47:50.633Z,86.50
2018-06-12T08:50:18.795Z,85.80
2018-06-12T08:52:46.967Z,86.60
2018-06-12T08:55:15.113Z,85.70
2018-06-12T08:57:43.308Z,85.10
2018-06-12T09:00:11.554Z,85.70
2018-06-12T09:02:39.737Z,85.50
2018-06-12T09:05:07.924Z,86.30
2018-06-12T09:07:36.110Z,86.90
2018-06-12T09:10:04.315Z,86.50
2018-06-12T09:12:32.510Z,85.00
2018-06-12T09:15:00.686Z,85.00
2018-06-12T09:17:28.854Z,86.30
2018-06-12T09:19:57.002Z,86.50
2018-06-12T09:24:58.774Z,86.50
2018-06-12T09:27:26.930Z,86.30
2018-06-12T09:29:55.102Z,86.10
2018-06-12T09:32:23.270Z,85.30
2018-06-12T09:34:51.453Z,84.20
2018-06-12T09:37:19.730Z,85.10
2018-06-12T09:39:48.046Z,84.70
2018-06-12T09:42:16.206Z,84.40
2018-06-12T09:44:44.384Z,84.60
2018-06-12T09:47:13.103Z,85.60
2018-06-12T09:49:41.235Z,86.30
2018-06-12T09:52:09.387Z,86.80
2018-06-12T09:54:37.574Z,87.30
2018-06-12T09:57:05.830Z,87.40
2018-06-12T09:59:34.003Z,86.60
2018-06-12T10:02:02.235Z,86.40
2018-06-12T10:04:30.394Z,85.50
2018-06-12T10:06:58.575Z,86.40
2018-06-12T10:09:27.270Z,85.80
2018-06-12T10:11:55.486Z,87.00
2018-06-12T10:14:23.792Z,87.70
2018-06-12T10:16:51.970Z,87.60
2018-06-12T10:19:20.124Z,88.00
2018-06-12T10:21:48.347Z,86.40
2018-06-12T10:24:17.094Z,86.30
2018-06-12T10:26:45.260Z,85.80
2018-06-12T10:29:13.422Z,86.30
2018-06-12T10:31:42.142Z,86.50
2018-06-12T10:34:10.301Z,86.00
2018-06-12T10:36:38.462Z,85.10
2018-06-12T10:39:07.766Z,85.50
2018-06-12T10:41:35.945Z,84.90
2018-06-12T10:44:04.107Z,84.50
2018-06-12T10:46:32.343Z,84.10
2018-06-12T10:49:00.862Z,84.80
2018-06-12T10:51:29.042Z,85.50
2018-06-12T10:53:58.034Z,84.50
2018-06-12T10:56:26.237Z,84.20
2018-06-12T10:58:54.401Z,83.70
2018-06-12T11:01:22.582Z,83.10
2018-06-12T11:03:50.732Z,82.50
2018-06-12T11:06:18.909Z,83.80
2018-06-12T11:08:47.092Z,84.10
2018-06-12T11:11:15.254Z,83.90
2018-06-12T11:13:43.592Z,84.20
2018-06-12T11:16:11.810Z,84.10
2018-06-12T11:18:39.972Z,83.10
2018-06-12T11:21:08.146Z,83.40
2018-06-12T11:23:36.339Z,83.70
2018-06-12T11:26:15.044Z,82.20
2018-06-12T11:28:43.212Z,83.60
2018-06-12T11:31:11.371Z,82.80
2018-06-12T11:33:39.530Z,81.90
2018-06-12T11:36:07.786Z,82.20
2018-06-12T11:38:35.938Z,83.30
2018-06-12T11:41:04.095Z,83.00
2018-06-12T11:43:32.466Z,82.20
2018-06-12T11:46:00.653Z,83.00
2018-06-12T11:48:28.830Z,82.20
2018-06-12T11:50:58.978Z,81.70
2018-06-12T11:53:27.075Z,82.60
2018-06-12T11:55:55.248Z,81.70
2018-06-12T11:58:23.750Z,80.70
2018-06-12T12:00:51.903Z,80.10
2018-06-12T12:03:20.058Z,79.60
2018-06-12T12:05:48.239Z,78.70
2018-06-12T12:08:16.385Z,79.90
2018-06-12T12:10:44.554Z,79.20
2018-06-12T12:13:12.726Z,79.60
2018-06-12T12:15:40.890Z,79.20
2018-06-12T12:18:09.059Z,79.40
2018-06-12T12:20:37.317Z,79.50
2018-06-12T12:23:05.642Z,79.70
2018-06-12T12:25:33.850Z,80.30
2018-06-12T12:28:03.434Z,80.10
2018-06-12T12:30:31.587Z,79.60
2018-06-12T12:33:00.732Z,80.50
2018-06-12T12:35:29.027Z,81.20
2018-06-12T12:37:57.181Z,80.60
2018-06-12T12:40:25.399Z,80.10
2018-06-12T12:42:53.614Z,77.90
2018-06-12T12:45:21.778Z,77.50
2018-06-12T12:47:49.946Z,78.00
2018-06-12T12:50:18.115Z,78.60
2018-06-12T12:52:46.270Z,78.30
2018-06-12T12:55:14.458Z,79.90
2018-06-12T12:57:42.617Z,78.40
2018-06-12T13:00:10.810Z,78.10
2018-06-12T13:02:38.959Z,78.20
2018-06-12T13:07:41.614Z,77.50
2018-06-12T13:10:09.800Z,76.60
2018-06-12T13:12:37.958Z,76.30
2018-06-12T13:15:06.764Z,75.00
2018-06-12T13:17:34.926Z,75.60
2018-06-12T13:20:03.095Z,72.90
2018-06-12T13:22:31.304Z,73.30
2018-06-12T13:24:59.464Z,74.30
2018-06-12T13:27:27.638Z,73.50
2018-06-12T13:29:56.788Z,76.10
2018-06-12T13:32:24.988Z,74.20
2018-06-12T13:34:53.148Z,73.70
2018-06-12T13:37:21.335Z,73.90
2018-06-12T13:39:49.508Z,73.50
2018-06-12T13:42:17.692Z,72.70
2018-06-12T13:44:45.861Z,73.20
2018-06-12T13:47:14.012Z,74.10
2018-06-12T13:49:42.166Z,73.20
2018-06-12T13:52:10.663Z,73.80
2018-06-12T13:54:39.620Z,72.40
2018-06-12T13:57:07.807Z,71.80
2018-06-12T13:59:35.978Z,70.20
2018-06-12T14:02:04.129Z,69.20
2018-06-12T14:04:32.307Z,69.80
2018-06-12T14:07:00.499Z,69.60
2018-06-12T14:09:28.646Z,70.60
2018-06-12T14:11:57.195Z,71.70
2018-06-12T14:14:25.350Z,71.90
2018-06-12T14:16:53.504Z,69.90
2018-06-12T14:19:21.670Z,72.10
2018-06-12T14:21:49.973Z,73.20
2018-06-12T14:24:18.246Z,70.70
2018-06-12T14:26:46.425Z,71.80
2018-06-12T14:29:14.578Z,71.10
2018-06-12T14:31:43.974Z,71.30
2018-06-12T14:36:46.416Z,71.70
2018-06-12T14:39:14.576Z,71.80
2018-06-12T14:41:42.729Z,71.40
2018-06-12T14:44:10.892Z,70.30
2018-06-12T14:46:39.562Z,70.50
2018-06-12T14:49:07.721Z,71.10
2018-06-12T14:51:35.878Z,70.90
2018-06-12T14:54:04.031Z,71.30
2018-06-12T14:56:32.186Z,70.50
2018-06-12T14:59:00.650Z,70.30
2018-06-12T15:01:28.822Z,70.30
2018-06-12T15:03:57.040Z,69.90
2018-06-12T15:06:25.290Z,69.80
2018-06-12T15:08:53.554Z,69.80
2018-06-12T15:11:21.738Z,69.40
2018-06-12T15:13:49.921Z,66.60
2018-06-12T15:16:18.170Z,65.50
2018-06-12T15:18:46.336Z,65.10
2018-06-12T15:21:14.603Z,63.90
2018-06-12T15:23:42.775Z,64.30
2018-06-12T15:26:10.971Z,64.60
2018-06-12T15:28:39.139Z,66.50
2018-06-12T15:31:07.343Z,64.30
2018-06-12T15:33:37.070Z,64.60
2018-06-12T15:36:05.342Z,63.00
2018-06-12T15:38:33.498Z,62.80
2018-06-12T15:41:01.683Z,62.80
2018-06-12T15:43:29.842Z,63.70
2018-06-12T15:45:58.007Z,63.90
2018-06-12T15:48:26.186Z,62.90
2018-06-12T15:50:54.355Z,62.40
2018-06-12T15:53:23.116Z,62.80
2018-06-12T15:55:51.330Z,62.90
2018-06-12T15:58:19.493Z,63.20
2018-06-12T16:00:47.689Z,63.10
2018-06-12T16:03:16.174Z,62.70
2018-06-12T16:05:44.326Z,62.70
2018-06-12T16:08:12.596Z,63.90
2018-06-12T16:10:40.826Z,64.70
2018-06-12T16:13:09.038Z,64.20
2018-06-12T16:15:37.221Z,64.80
2018-06-12T16:18:05.410Z,66.30
2018-06-12T16:20:33.569Z,66.00
2018-06-12T16:23:01.714Z,66.20
2018-06-12T16:25:30.008Z,66.30
2018-06-12T16:27:58.167Z,66.70
2018-06-12T16:30:26.353Z,66.70
2018-06-12T16:32:54.527Z,67.90
2018-06-12T16:35:23.248Z,68.60
2018-06-12T16:37:51.546Z,68.00
2018-06-12T16:40:19.750Z,68.90
2018-06-12T16:42:47.902Z,69.10
2018-06-12T16:45:16.061Z,69.20
2018-06-12T16:47:44.270Z,68.90
2018-06-12T16:50:12.428Z,69.10
2018-06-12T16:52:41.126Z,69.00
2018-06-12T16:55:09.297Z,69.70
2018-06-12T16:57:37.458Z,69.40
2018-06-12T17:00:05.678Z,70.10
2018-06-12T17:02:33.850Z,70.00
2018-06-12T17:05:02.018Z,70.00
2018-06-12T17:07:30.198Z,70.30
2018-06-12T17:09:58.433Z,71.20
2018-06-12T17:12:26.599Z,71.00
2018-06-12T17:14:54.755Z,71.00
2018-06-12T17:17:22.930Z,71.30
2018-06-12T17:19:51.462Z,70.30
2018-06-12T17:22:19.626Z,70.70
2018-06-12T17:24:47.790Z,70.80
2018-06-12T17:27:15.964Z,71.50
2018-06-12T17:29:44.126Z,71.60
2018-06-12T17:32:13.083Z,71.30
2018-06-12T17:34:41.259Z,71.80
2018-06-12T17:37:10.412Z,71.20
2018-06-12T17:39:38.582Z,71.20
2018-06-12T17:42:06.786Z,71.60
2018-06-12T17:44:34.945Z,71.60
2018-06-12T17:47:03.177Z,71.00
2018-06-12T17:49:31.362Z,70.90
2018-06-12T17:51:59.510Z,71.70
2018-06-12T17:54:27.902Z,71.20
2018-06-12T17:56:56.060Z,72.10
2018-06-12T17:59:24.242Z,71.80
2018-06-12T18:01:52.398Z,71.80
2018-06-12T18:04:20.694Z,71.00
2018-06-12T18:06:48.873Z,71.00
2018-06-12T18:09:23.431Z,71.90
2018-06-12T18:11:51.593Z,72.30
2018-06-12T18:14:19.754Z,71.40
2018-06-12T18:16:48.010Z,72.30
2018-06-12T18:19:16.227Z,72.20
2018-06-12T18:21:44.373Z,71.90
2018-06-12T18:24:12.599Z,71.60
2018-06-12T18:26:40.893Z,71.30
2018-06-12T18:29:09.082Z,71.10
2018-06-12T18:31:37.314Z,71.40
2018-06-12T18:34:06.138Z,71.10
2018-06-12T18:36:34.329Z,71.10
2018-06-12T18:39:03.896Z,71.10
2018-06-12T18:41:32.118Z,71.00
2018-06-12T18:44:00.537Z,71.30
2018-06-12T18:46:29.268Z,71.40
2018-06-12T18:48:57.820Z,72.30
2018-06-12T18:51:26.783Z,74.50
2018-06-12T18:53:56.311Z,75.30
2018-06-12T18:56:26.027Z,75.80
2018-06-12T18:58:55.632Z,77.10
2018-06-12T19:01:25.639Z,77.30
2018-06-12T19:03:55.882Z,78.00
2018-06-12T19:06:26.382Z,78.10
2018-06-12T19:08:56.867Z,78.10
2018-06-12T19:11:27.341Z,78.20
2018-06-12T19:13:58.516Z,78.30
2018-06-12T19:16:28.899Z,78.00
2018-06-12T19:18:59.245Z,78.50
2018-06-12T19:21:29.939Z,78.60
2018-06-12T19:24:00.454Z,79.60
2018-06-12T19:26:30.924Z,80.10
2018-06-12T19:29:01.873Z,80.30
2018-06-12T19:31:32.435Z,80.50
2018-06-12T19:34:03.403Z,79.90
2018-06-12T19:36:33.812Z,79.90
2018-06-12T19:39:04.724Z,79.90
2018-06-12T19:41:34.794Z,80.20
2018-06-12T19:44:04.464Z,80.10
2018-06-12T19:46:34.595Z,79.80
2018-06-12T19:49:03.958Z,80.00
2018-06-12T19:51:33.137Z,79.60
2018-06-12T19:54:01.564Z,79.60
2018-06-12T19:56:30.548Z,80.20
2018-06-12T19:59:00.087Z,80.90
2018-06-12T20:01:29.332Z,80.70
2018-06-12T20:03:58.996Z,80.30
2018-06-12T20:06:28.789Z,80.20
2018-06-12T20:08:58.430Z,79.90
2018-06-12T20:11:28.574Z,78.50
2018-06-12T20:13:58.909Z,78.10
2018-06-12T20:16:28.776Z,75.60
2018-06-12T20:18:59.024Z,74.80
2018-06-12T20:21:29.268Z,73.40
2018-06-12T20:23:59.014Z,73.40
2018-06-12T20:26:28.122Z,72.70
2018-06-12T20:28:57.064Z,72.30
2018-06-12T20:31:26.110Z,72.30
2018-06-12T20:33:55.125Z,72.40
2018-06-12T20:36:23.568Z,72.10
2018-06-12T20:41:37.540Z,71.80
2018-06-12T20:44:05.841Z,71.60
2018-06-12T20:46:34.382Z,71.60
2018-06-12T20:49:02.651Z,71.90
2018-06-12T20:51:30.902Z,72.00
2018-06-12T20:53:59.063Z,72.10
2018-06-12T20:56:27.251Z,72.70
2018-06-12T20:58:55.422Z,72.10
2018-06-12T21:01:23.616Z,72.70
2018-06-12T21:03:51.818Z,73.10
2018-06-12T21:06:20.002Z,72.60
2018-06-12T21:08:48.243Z,72.90
2018-06-12T21:11:16.403Z,73.10
2018-06-12T21:13:44.574Z,73.20
2018-06-12T21:16:12.732Z,72.30
2018-06-12T21:18:40.912Z,71.20
2018-06-12T21:21:09.185Z,70.00
2018-06-12T21:23:37.353Z,70.10
2018-06-12T21:26:05.546Z,69.90
2018-06-12T21:28:33.746Z,69.20
2018-06-12T21:31:01.964Z,69.40
2018-06-12T21:33:30.199Z,70.50
2018-06-12T21:35:58.365Z,70.70
2018-06-12T21:38:26.518Z,71.20
2018-06-12T21:40:55.698Z,70.90
2018-06-12T21:43:24.377Z,71.20
2018-06-12T21:45:52.539Z,71.40
2018-06-12T21:48:21.098Z,72.10
2018-06-12T21:50:49.281Z,72.40
2018-06-12T21:53:17.438Z,72.00
2018-06-12T21:55:45.607Z,72.60
2018-06-12T21:58:13.786Z,72.30
2018-06-12T22:00:41.944Z,72.80
2018-06-12T22:03:10.122Z,73.20
2018-06-12T22:05:38.746Z,72.90
2018-06-12T22:08:06.912Z,73.70
2018-06-12T22:10:35.922Z,73.60
2018-06-12T22:13:04.088Z,73.70
2018-06-12T22:15:32.242Z,73.80
2018-06-12T22:18:00.437Z,74.10
2018-06-12T22:20:28.590Z,74.80
2018-06-12T22:22:57.018Z,74.60
2018-06-12T22:25:25.153Z,74.40
2018-06-12T22:27:53.297Z,75.00
2018-06-12T22:30:21.500Z,74.60
2018-06-12T22:32:49.731Z,74.40
2018-06-12T22:35:17.918Z,74.00
2018-06-12T22:37:46.120Z,74.50
2018-06-12T22:40:14.251Z,75.10
2018-06-12T22:42:42.418Z,74.50
2018-06-12T22:45:11.119Z,74.80
2018-06-12T22:47:39.334Z,74.40
2018-06-12T22:50:07.791Z,75.10
2018-06-12T22:52:36.701Z,75.10
2018-06-12T22:55:05.078Z,75.00
2018-06-12T22:57:33.226Z,74.70
2018-06-12T23:00:01.392Z,74.50
2018-06-12T23:02:29.572Z,74.70
2018-06-12T23:04:57.750Z,74.80
2018-06-12T23:07:25.906Z,75.10
2018-06-12T23:09:54.071Z,75.00
2018-06-12T23:12:22.271Z,75.60
2018-06-12T23:14:50.414Z,75.10
2018-06-12T23:17:19.131Z,75.30
2018-06-12T23:19:58.674Z,75.40
2018-06-12T23:22:26.869Z,75.40
2018-06-12T23:24:55.030Z,75.10
2018-06-12T23:27:23.225Z,75.50
2018-06-12T23:29:51.390Z,75.80
2018-06-12T23:32:19.554Z,75.30
2018-06-12T23:34:47.728Z,75.40
2018-06-12T23:37:15.979Z,75.20
2018-06-12T23:39:44.186Z,75.30
2018-06-12T23:42:12.331Z,75.80
2018-06-12T23:44:40.526Z,76.00
2018-06-12T23:47:08.799Z,75.50
2018-06-12T23:49:36.990Z,75.20
2018-06-12T23:52:05.557Z,75.10
2018-06-12T23:54:33.718Z,75.40
2018-06-12T23:57:01.908Z,76.00
2018-06-12T23:59:30.114Z,75.30
